createdAt,value
2022-12-29T00:01:35.000Z,281.46
2022-12-29T00:03:02.000Z,281.46
2022-12-29T00:05:08.000Z,281.59
2022-12-29T00:06:35.000Z,281.59
2022-12-29T00:08:41.000Z,281.65
2022-12-29T00:10:08.000Z,281.65
2022-12-29T00:12:14.000Z,281.71
2022-12-29T00:13:40.000Z,281.77
2022-12-29T00:15:46.000Z,281.71
2022-12-29T00:18:38.000Z,281.84
2022-12-29T00:20:04.000Z,281.9
2022-12-29T00:22:11.000Z,282.02
2022-12-29T00:23:38.000Z,281.96
2022-12-29T00:25:44.000Z,282.02
2022-12-29T00:27:10.000Z,281.96
2022-12-29T00:29:17.000Z,281.96
2022-12-29T00:30:43.000Z,281.96
2022-12-29T00:32:49.000Z,282.02
2022-12-29T00:34:16.000Z,282.02
2022-12-29T00:36:22.000Z,281.96
2022-12-29T00:37:48.000Z,282.02
2022-12-29T00:39:54.000Z,282.09
2022-12-29T00:41:21.000Z,282.09
2022-12-29T00:43:27.000Z,282.02
2022-12-29T00:44:54.000Z,282.09
2022-12-29T00:47:00.000Z,282.02
2022-12-29T00:48:26.000Z,282.09
2022-12-29T00:50:32.000Z,282.09
2022-12-29T00:51:59.000Z,282.09
2022-12-29T00:54:05.000Z,282.15
2022-12-29T00:56:56.000Z,282.21
2022-12-29T00:58:23.000Z,282.15
2022-12-29T01:00:29.000Z,282.15
2022-12-29T01:01:55.000Z,282.09
2022-12-29T01:04:02.000Z,282.15
2022-12-29T01:05:29.000Z,282.27
2022-12-29T01:07:35.000Z,282.21
2022-12-29T01:09:01.000Z,282.21
2022-12-29T01:11:08.000Z,282.15
2022-12-29T01:12:34.000Z,282.27
2022-12-29T01:14:40.000Z,282.27
2022-12-29T01:16:07.000Z,282.34
2022-12-29T01:18:13.000Z,282.27
2022-12-29T01:19:40.000Z,282.27
2022-12-29T01:21:46.000Z,282.27
2022-12-29T01:23:12.000Z,282.21
2022-12-29T01:25:18.000Z,282.27
2022-12-29T01:26:45.000Z,282.15
2022-12-29T01:28:51.000Z,282.21
2022-12-29T01:30:18.000Z,282.34
2022-12-29T01:32:24.000Z,282.4
2022-12-29T01:35:15.000Z,282.27
2022-12-29T01:36:42.000Z,282.27
2022-12-29T01:38:48.000Z,282.21
2022-12-29T01:40:15.000Z,282.27
2022-12-29T01:42:22.000Z,282.21
2022-12-29T01:43:48.000Z,282.21
2022-12-29T01:45:54.000Z,282.21
2022-12-29T01:47:21.000Z,282.21
2022-12-29T01:49:27.000Z,282.15
2022-12-29T01:50:53.000Z,282.15
2022-12-29T01:53:00.000Z,282.09
2022-12-29T01:54:26.000Z,282.09
2022-12-29T01:56:32.000Z,281.96
2022-12-29T01:57:59.000Z,282.02
2022-12-29T02:00:05.000Z,281.9
2022-12-29T02:01:31.000Z,281.96
2022-12-29T02:03:38.000Z,281.9
2022-12-29T02:05:04.000Z,281.96
2022-12-29T02:07:11.000Z,281.9
2022-12-29T02:08:37.000Z,281.9
2022-12-29T02:10:44.000Z,281.9
2022-12-29T02:13:35.000Z,281.96
2022-12-29T02:15:01.000Z,281.96
2022-12-29T02:17:07.000Z,281.96
2022-12-29T02:18:34.000Z,282.02
2022-12-29T02:20:40.000Z,282.09
2022-12-29T02:22:07.000Z,282.02
2022-12-29T02:24:13.000Z,281.96
2022-12-29T02:25:39.000Z,281.96
2022-12-29T02:27:45.000Z,281.96
2022-12-29T02:29:12.000Z,282.02
2022-12-29T02:31:18.000Z,282.15
2022-12-29T02:32:45.000Z,282.15
2022-12-29T02:34:51.000Z,282.09
2022-12-29T02:36:18.000Z,282.09
2022-12-29T02:38:24.000Z,282.09
2022-12-29T02:39:50.000Z,282.02
2022-12-29T02:41:56.000Z,282.09
2022-12-29T02:43:23.000Z,282.09
2022-12-29T02:45:29.000Z,281.96
2022-12-29T02:46:56.000Z,282.02
2022-12-29T02:49:02.000Z,282.02
2022-12-29T02:51:53.000Z,282.02
2022-12-29T02:53:19.000Z,282.02
2022-12-29T02:55:26.000Z,281.96
2022-12-29T02:56:52.000Z,281.9
2022-12-29T02:58:58.000Z,281.96
2022-12-29T03:00:25.000Z,281.96
2022-12-29T03:02:31.000Z,282.02
2022-12-29T03:03:58.000Z,282.09
2022-12-29T03:06:04.000Z,281.96
2022-12-29T03:07:31.000Z,282.02
2022-12-29T03:09:37.000Z,282.09
2022-12-29T03:11:03.000Z,282.09
2022-12-29T03:13:09.000Z,281.96
2022-12-29T03:14:36.000Z,282.02
2022-12-29T03:16:42.000Z,282.02
2022-12-29T03:18:09.000Z,281.96
2022-12-29T03:20:15.000Z,282.02
2022-12-29T03:21:42.000Z,282.09
2022-12-29T03:23:48.000Z,282.09
2022-12-29T03:25:15.000Z,282.09
2022-12-29T03:27:21.000Z,282.02
2022-12-29T03:30:12.000Z,282.15
2022-12-29T03:31:39.000Z,282.15
2022-12-29T03:33:45.000Z,282.15
2022-12-29T03:35:12.000Z,282.09
2022-12-29T03:37:18.000Z,282.09
2022-12-29T03:38:44.000Z,282.09
2022-12-29T03:40:50.000Z,282.02
2022-12-29T03:42:17.000Z,282.02
2022-12-29T03:44:23.000Z,281.96
2022-12-29T03:45:50.000Z,282.09
2022-12-29T03:47:56.000Z,282.21
2022-12-29T03:49:22.000Z,282.15
2022-12-29T03:51:28.000Z,282.15
2022-12-29T03:52:55.000Z,282.27
2022-12-29T03:55:01.000Z,282.21
2022-12-29T03:56:28.000Z,282.21
2022-12-29T03:58:34.000Z,282.21
2022-12-29T04:00:00.000Z,282.27
2022-12-29T04:02:06.000Z,282.21
2022-12-29T04:03:33.000Z,282.15
2022-12-29T04:05:40.000Z,282.09
2022-12-29T04:08:31.000Z,282.09
2022-12-29T04:09:57.000Z,282.15
2022-12-29T04:12:03.000Z,282.15
2022-12-29T04:13:30.000Z,282.09
2022-12-29T04:15:36.000Z,282.09
2022-12-29T04:17:03.000Z,282.21
2022-12-29T04:19:09.000Z,282.15
2022-12-29T04:20:35.000Z,282.15
2022-12-29T04:22:41.000Z,282.15
2022-12-29T04:24:08.000Z,282.27
2022-12-29T04:26:14.000Z,282.27
2022-12-29T04:27:41.000Z,282.46
2022-12-29T04:29:47.000Z,282.4
2022-12-29T04:31:13.000Z,282.4
2022-12-29T04:33:20.000Z,282.34
2022-12-29T04:34:46.000Z,282.34
2022-12-29T04:36:52.000Z,282.27
2022-12-29T04:38:19.000Z,282.46
2022-12-29T04:40:25.000Z,282.4
2022-12-29T04:41:51.000Z,282.46
2022-12-29T04:43:58.000Z,282.4
2022-12-29T04:46:48.000Z,282.4
2022-12-29T04:48:15.000Z,282.34
2022-12-29T04:50:22.000Z,282.34
2022-12-29T04:51:48.000Z,282.27
2022-12-29T04:53:55.000Z,282.21
2022-12-29T04:55:21.000Z,282.21
2022-12-29T04:57:27.000Z,282.34
2022-12-29T04:58:54.000Z,282.34
2022-12-29T05:01:00.000Z,282.4
2022-12-29T05:02:26.000Z,282.46
2022-12-29T05:04:33.000Z,282.46
2022-12-29T05:05:59.000Z,282.46
2022-12-29T05:08:06.000Z,282.46
2022-12-29T05:09:32.000Z,282.52
2022-12-29T05:11:38.000Z,282.59
2022-12-29T05:13:05.000Z,282.59
2022-12-29T05:15:11.000Z,282.59
2022-12-29T05:16:39.000Z,282.52
2022-12-29T05:18:45.000Z,282.46
2022-12-29T05:20:11.000Z,282.46
2022-12-29T05:22:18.000Z,282.46
2022-12-29T05:25:09.000Z,282.4
2022-12-29T05:26:36.000Z,282.46
2022-12-29T05:28:42.000Z,282.46
2022-12-29T05:30:08.000Z,282.46
2022-12-29T05:32:15.000Z,282.52
2022-12-29T05:33:43.000Z,282.65
2022-12-29T05:35:49.000Z,282.52
2022-12-29T05:37:16.000Z,282.52
2022-12-29T05:39:22.000Z,282.52
2022-12-29T05:40:48.000Z,282.65
2022-12-29T05:42:55.000Z,282.59
2022-12-29T05:44:21.000Z,282.65
2022-12-29T05:46:27.000Z,282.52
2022-12-29T05:47:54.000Z,282.52
2022-12-29T05:50:00.000Z,282.46
2022-12-29T05:51:27.000Z,282.46
2022-12-29T05:53:33.000Z,282.4
2022-12-29T05:54:59.000Z,282.46
2022-12-29T05:57:06.000Z,282.4
2022-12-29T05:58:32.000Z,282.4
2022-12-29T06:00:38.000Z,282.4
2022-12-29T06:03:29.000Z,282.4
2022-12-29T06:04:56.000Z,282.4
2022-12-29T06:07:02.000Z,282.46
2022-12-29T06:08:29.000Z,282.46
2022-12-29T06:10:35.000Z,282.46
2022-12-29T06:12:02.000Z,282.59
2022-12-29T06:14:08.000Z,282.46
2022-12-29T06:15:34.000Z,282.52
2022-12-29T06:17:40.000Z,282.46
2022-12-29T06:19:07.000Z,282.59
2022-12-29T06:21:13.000Z,282.59
2022-12-29T06:22:40.000Z,282.59
2022-12-29T06:24:46.000Z,282.77
2022-12-29T06:26:12.000Z,282.84
2022-12-29T06:28:18.000Z,282.84
2022-12-29T06:29:45.000Z,282.84
2022-12-29T06:31:51.000Z,282.9
2022-12-29T06:33:18.000Z,282.9
2022-12-29T06:35:24.000Z,282.84
2022-12-29T06:36:50.000Z,282.84
2022-12-29T06:38:56.000Z,282.84
2022-12-29T06:41:48.000Z,282.96
2022-12-29T06:43:14.000Z,282.9
2022-12-29T06:45:20.000Z,282.9
2022-12-29T06:46:47.000Z,282.9
2022-12-29T06:48:53.000Z,282.96
2022-12-29T06:50:19.000Z,282.9
2022-12-29T06:52:25.000Z,282.9
2022-12-29T06:53:52.000Z,282.96
2022-12-29T06:55:58.000Z,282.96
2022-12-29T06:57:25.000Z,282.84
2022-12-29T06:59:31.000Z,282.84
2022-12-29T07:00:58.000Z,282.84
2022-12-29T07:03:04.000Z,282.77
2022-12-29T07:04:31.000Z,282.84
2022-12-29T07:06:37.000Z,282.77
2022-12-29T07:08:04.000Z,282.65
2022-12-29T07:10:10.000Z,282.71
2022-12-29T07:11:36.000Z,282.71
2022-12-29T07:13:42.000Z,282.71
2022-12-29T07:15:09.000Z,282.84
2022-12-29T07:17:15.000Z,282.9
2022-12-29T07:20:07.000Z,282.77
2022-12-29T07:21:33.000Z,282.84
2022-12-29T07:23:39.000Z,282.84
2022-12-29T07:25:06.000Z,282.9
2022-12-29T07:27:12.000Z,282.9
2022-12-29T07:28:38.000Z,282.9
2022-12-29T07:30:45.000Z,282.9
2022-12-29T07:32:11.000Z,282.84
2022-12-29T07:34:17.000Z,282.71
2022-12-29T07:35:44.000Z,282.65
2022-12-29T07:37:50.000Z,282.52
2022-12-29T07:39:16.000Z,282.46
2022-12-29T07:41:23.000Z,282.46
2022-12-29T07:42:49.000Z,282.52
2022-12-29T07:44:55.000Z,282.46
2022-12-29T07:46:22.000Z,282.52
2022-12-29T07:49:00.000Z,282.59
2022-12-29T07:50:27.000Z,282.65
2022-12-29T07:52:33.000Z,282.59
2022-12-29T07:54:00.000Z,282.59
2022-12-29T07:56:06.000Z,282.59
2022-12-29T07:58:57.000Z,282.71
2022-12-29T08:00:23.000Z,282.77
2022-12-29T08:02:29.000Z,282.77
2022-12-29T08:03:56.000Z,282.77
2022-12-29T08:06:02.000Z,282.77
2022-12-29T08:07:29.000Z,282.77
2022-12-29T08:09:35.000Z,282.71
2022-12-29T08:11:01.000Z,282.9
2022-12-29T08:13:07.000Z,282.96
2022-12-29T08:14:34.000Z,282.9
2022-12-29T08:16:40.000Z,283.09
2022-12-29T08:18:06.000Z,283.09
2022-12-29T08:20:13.000Z,283.02
2022-12-29T08:21:39.000Z,283.02
2022-12-29T08:23:45.000Z,283.02
2022-12-29T08:25:12.000Z,283.09
2022-12-29T08:27:18.000Z,283.15
2022-12-29T08:28:45.000Z,283.09
2022-12-29T08:30:52.000Z,283.09
2022-12-29T08:32:18.000Z,283.09
2022-12-29T08:34:24.000Z,283.09
2022-12-29T08:37:16.000Z,283.09
2022-12-29T08:38:42.000Z,283.15
2022-12-29T08:40:48.000Z,283.21
2022-12-29T08:42:15.000Z,283.21
2022-12-29T08:44:21.000Z,283.34
2022-12-29T08:45:48.000Z,283.27
2022-12-29T08:47:54.000Z,283.21
2022-12-29T08:49:20.000Z,283.34
2022-12-29T08:51:26.000Z,283.34
2022-12-29T08:52:53.000Z,283.4
2022-12-29T08:54:59.000Z,283.46
2022-12-29T08:56:25.000Z,283.46
2022-12-29T08:58:31.000Z,283.46
2022-12-29T08:59:58.000Z,283.52
2022-12-29T09:02:04.000Z,283.46
2022-12-29T09:06:07.000Z,283.59
2022-12-29T09:07:34.000Z,283.59
2022-12-29T09:09:40.000Z,283.65
2022-12-29T09:11:06.000Z,283.71
2022-12-29T09:13:13.000Z,283.71
2022-12-29T09:16:04.000Z,283.71
2022-12-29T09:17:30.000Z,283.71
2022-12-29T09:19:37.000Z,283.71
2022-12-29T09:21:03.000Z,283.65
2022-12-29T09:23:09.000Z,283.59
2022-12-29T09:24:36.000Z,283.59
2022-12-29T09:26:42.000Z,283.46
2022-12-29T09:28:11.000Z,283.4
2022-12-29T09:30:17.000Z,283.34
2022-12-29T09:31:44.000Z,283.34
2022-12-29T09:33:50.000Z,283.27
2022-12-29T09:35:17.000Z,283.21
2022-12-29T09:37:23.000Z,283.15
2022-12-29T09:38:49.000Z,283.09
2022-12-29T09:40:55.000Z,283.02
2022-12-29T09:42:22.000Z,283.02
2022-12-29T09:44:28.000Z,282.96
2022-12-29T09:45:55.000Z,283.02
2022-12-29T09:48:01.000Z,282.96
2022-12-29T09:49:34.000Z,282.96
2022-12-29T09:51:40.000Z,282.96
2022-12-29T09:54:31.000Z,282.96
2022-12-29T09:55:57.000Z,282.96
2022-12-29T09:58:03.000Z,282.96
2022-12-29T09:59:30.000Z,283.02
2022-12-29T10:01:36.000Z,283.09
2022-12-29T10:03:03.000Z,283.02
2022-12-29T10:05:09.000Z,283.02
2022-12-29T10:06:36.000Z,283.02
2022-12-29T10:09:15.000Z,283.09
2022-12-29T10:10:41.000Z,283.15
2022-12-29T10:12:47.000Z,283.21
2022-12-29T10:14:14.000Z,283.21
2022-12-29T10:16:20.000Z,283.21
2022-12-29T10:17:47.000Z,283.15
2022-12-29T10:19:53.000Z,283.15
2022-12-29T10:21:19.000Z,283.09
2022-12-29T10:23:26.000Z,283.09
2022-12-29T10:24:52.000Z,283.09
2022-12-29T10:26:58.000Z,283.09
2022-12-29T10:28:25.000Z,283.09
2022-12-29T10:30:31.000Z,283.15
2022-12-29T10:33:22.000Z,283.15
2022-12-29T10:34:48.000Z,283.15
2022-12-29T10:36:54.000Z,283.15
2022-12-29T10:38:21.000Z,283.15
2022-12-29T10:40:27.000Z,283.09
2022-12-29T10:41:54.000Z,283.09
2022-12-29T10:44:00.000Z,283.09
2022-12-29T10:45:26.000Z,283.02
2022-12-29T10:47:32.000Z,283.02
2022-12-29T10:48:59.000Z,283.02
2022-12-29T10:51:05.000Z,283.09
2022-12-29T10:52:32.000Z,283.02
2022-12-29T10:54:38.000Z,283.02
2022-12-29T10:56:04.000Z,283.02
2022-12-29T10:58:10.000Z,282.96
2022-12-29T10:59:37.000Z,282.96
2022-12-29T11:01:43.000Z,282.9
2022-12-29T11:03:10.000Z,282.9
2022-12-29T11:05:16.000Z,282.9
2022-12-29T11:06:43.000Z,282.84
2022-12-29T11:08:49.000Z,282.84
2022-12-29T11:11:40.000Z,282.84
2022-12-29T11:13:07.000Z,282.84
2022-12-29T11:15:13.000Z,282.84
2022-12-29T11:16:40.000Z,282.84
2022-12-29T11:18:46.000Z,282.84
2022-12-29T11:20:12.000Z,282.77
2022-12-29T11:22:19.000Z,282.77
2022-12-29T11:23:45.000Z,282.84
2022-12-29T11:25:52.000Z,282.77
2022-12-29T11:27:18.000Z,282.84
2022-12-29T11:29:24.000Z,282.77
2022-12-29T11:30:51.000Z,282.84
2022-12-29T11:32:57.000Z,282.9
2022-12-29T11:34:23.000Z,282.9
2022-12-29T11:36:29.000Z,282.96
2022-12-29T11:37:56.000Z,282.96
2022-12-29T11:40:02.000Z,282.96
2022-12-29T11:41:28.000Z,283.02
2022-12-29T11:43:35.000Z,283.02
2022-12-29T11:45:01.000Z,283.09
2022-12-29T11:47:14.000Z,283.09
2022-12-29T11:50:05.000Z,283.15
2022-12-29T11:51:32.000Z,283.15
2022-12-29T11:53:38.000Z,283.15
2022-12-29T11:55:05.000Z,283.15
2022-12-29T11:57:11.000Z,283.15
2022-12-29T11:58:37.000Z,283.15
2022-12-29T12:00:43.000Z,283.15
2022-12-29T12:02:10.000Z,283.15
2022-12-29T12:04:16.000Z,283.15
2022-12-29T12:05:43.000Z,283.15
2022-12-29T12:07:49.000Z,283.15
2022-12-29T12:09:16.000Z,283.21
2022-12-29T12:11:22.000Z,283.15
2022-12-29T12:12:49.000Z,283.15
2022-12-29T12:14:55.000Z,283.15
2022-12-29T12:16:21.000Z,283.21
2022-12-29T12:18:28.000Z,283.21
2022-12-29T12:19:54.000Z,283.21
2022-12-29T12:22:00.000Z,283.27
2022-12-29T12:23:27.000Z,283.27
2022-12-29T12:25:33.000Z,283.34
2022-12-29T12:28:24.000Z,283.34
2022-12-29T12:29:56.000Z,283.34
2022-12-29T12:32:02.000Z,283.27
2022-12-29T12:33:28.000Z,283.27
2022-12-29T12:35:34.000Z,283.34
2022-12-29T12:37:01.000Z,283.34
2022-12-29T12:39:07.000Z,283.27
2022-12-29T12:40:34.000Z,283.27
2022-12-29T12:42:40.000Z,283.27
2022-12-29T12:44:06.000Z,283.27
2022-12-29T12:46:12.000Z,283.27
2022-12-29T12:47:39.000Z,283.27
2022-12-29T12:49:45.000Z,283.21
2022-12-29T12:51:12.000Z,283.27
2022-12-29T12:53:18.000Z,283.21
2022-12-29T12:54:44.000Z,283.21
2022-12-29T12:56:50.000Z,283.21
2022-12-29T12:58:17.000Z,283.15
2022-12-29T13:00:23.000Z,283.15
2022-12-29T13:01:50.000Z,283.15
2022-12-29T13:03:56.000Z,283.15
2022-12-29T13:06:48.000Z,283.15
2022-12-29T13:08:14.000Z,283.15
2022-12-29T13:10:20.000Z,283.09
2022-12-29T13:11:47.000Z,283.15
2022-12-29T13:13:53.000Z,283.21
2022-12-29T13:15:20.000Z,283.15
2022-12-29T13:17:26.000Z,283.09
2022-12-29T13:18:52.000Z,283.09
2022-12-29T13:20:58.000Z,283.09
2022-12-29T13:22:25.000Z,283.09
2022-12-29T13:24:31.000Z,283.09
2022-12-29T13:25:57.000Z,283.15
2022-12-29T13:28:04.000Z,283.15
2022-12-29T13:29:30.000Z,283.09
2022-12-29T13:31:36.000Z,283.15
2022-12-29T13:33:03.000Z,283.09
2022-12-29T13:35:09.000Z,283.02
2022-12-29T13:36:36.000Z,283.02
2022-12-29T13:38:42.000Z,282.96
2022-12-29T13:40:08.000Z,282.96
2022-12-29T13:42:14.000Z,282.9
2022-12-29T13:45:06.000Z,282.84
2022-12-29T13:46:32.000Z,282.84
2022-12-29T13:48:38.000Z,282.77
2022-12-29T13:50:05.000Z,282.77
2022-12-29T13:52:12.000Z,282.77
2022-12-29T13:53:38.000Z,282.71
2022-12-29T13:55:44.000Z,282.71
2022-12-29T13:57:11.000Z,282.77
2022-12-29T13:59:17.000Z,282.77
2022-12-29T14:00:43.000Z,282.84
2022-12-29T14:02:49.000Z,282.77
2022-12-29T14:04:16.000Z,282.77
2022-12-29T14:06:22.000Z,282.77
2022-12-29T14:07:49.000Z,282.77
2022-12-29T14:09:55.000Z,282.84
2022-12-29T14:11:22.000Z,282.84
2022-12-29T14:13:28.000Z,282.77
2022-12-29T14:14:54.000Z,282.84
2022-12-29T14:17:00.000Z,282.77
2022-12-29T14:18:27.000Z,282.77
2022-12-29T14:20:33.000Z,282.77
2022-12-29T14:23:24.000Z,282.77
2022-12-29T14:24:50.000Z,282.77
2022-12-29T14:26:57.000Z,282.71
2022-12-29T14:28:23.000Z,282.77
2022-12-29T14:30:29.000Z,282.9
2022-12-29T14:31:56.000Z,282.9
2022-12-29T14:34:02.000Z,282.9
2022-12-29T14:35:28.000Z,282.84
2022-12-29T14:37:35.000Z,282.77
2022-12-29T14:39:01.000Z,282.77
2022-12-29T14:41:07.000Z,282.71
2022-12-29T14:42:39.000Z,282.71
2022-12-29T14:44:45.000Z,282.71
2022-12-29T14:46:12.000Z,282.65
2022-12-29T14:48:18.000Z,282.65
2022-12-29T14:49:44.000Z,282.71
2022-12-29T14:51:50.000Z,282.71
2022-12-29T14:53:17.000Z,282.71
2022-12-29T14:55:23.000Z,282.65
2022-12-29T14:56:50.000Z,282.59
2022-12-29T14:58:56.000Z,282.65
2022-12-29T15:01:47.000Z,282.65
2022-12-29T15:03:14.000Z,282.71
2022-12-29T15:05:20.000Z,282.71
2022-12-29T15:06:46.000Z,282.71
2022-12-29T15:08:52.000Z,282.71
2022-12-29T15:10:19.000Z,282.65
2022-12-29T15:12:25.000Z,282.59
2022-12-29T15:13:52.000Z,282.59
2022-12-29T15:15:58.000Z,282.65
2022-12-29T15:17:25.000Z,282.59
2022-12-29T15:19:31.000Z,282.59
2022-12-29T15:20:57.000Z,282.59
2022-12-29T15:23:03.000Z,282.65
2022-12-29T15:24:30.000Z,282.65
2022-12-29T15:26:42.000Z,282.77
2022-12-29T15:28:08.000Z,282.77
2022-12-29T15:30:14.000Z,282.65
2022-12-29T15:31:42.000Z,282.59
2022-12-29T15:33:48.000Z,282.52
2022-12-29T15:35:15.000Z,282.59
2022-12-29T15:37:21.000Z,282.52
2022-12-29T15:40:12.000Z,282.4
2022-12-29T15:41:39.000Z,282.4
2022-12-29T15:43:45.000Z,282.34
2022-12-29T15:45:12.000Z,282.34
2022-12-29T15:47:18.000Z,282.4
2022-12-29T15:48:44.000Z,282.34
2022-12-29T15:50:50.000Z,282.34
2022-12-29T15:52:17.000Z,282.34
2022-12-29T15:54:23.000Z,282.34
2022-12-29T15:55:49.000Z,282.34
2022-12-29T15:57:55.000Z,282.27
2022-12-29T15:59:22.000Z,282.27
2022-12-29T16:01:28.000Z,282.27
2022-12-29T16:02:55.000Z,282.27
2022-12-29T16:05:01.000Z,282.27
2022-12-29T16:06:43.000Z,282.27
2022-12-29T16:08:49.000Z,282.21
2022-12-29T16:10:15.000Z,282.21
2022-12-29T16:12:22.000Z,282.15
2022-12-29T16:13:48.000Z,282.15
2022-12-29T16:15:54.000Z,282.15
2022-12-29T16:18:45.000Z,282.21
2022-12-29T16:20:21.000Z,282.27
2022-12-29T16:22:27.000Z,282.21
2022-12-29T16:23:54.000Z,282.15
2022-12-29T16:26:00.000Z,282.21
2022-12-29T16:27:26.000Z,282.21
2022-12-29T16:29:32.000Z,282.15
2022-12-29T16:30:59.000Z,282.15
2022-12-29T16:33:05.000Z,282.15
2022-12-29T16:34:32.000Z,282.15
2022-12-29T16:36:38.000Z,282.15
2022-12-29T16:38:04.000Z,282.15
2022-12-29T16:40:11.000Z,282.09
2022-12-29T16:41:37.000Z,282.09
2022-12-29T16:43:43.000Z,281.96
2022-12-29T16:45:10.000Z,281.9
2022-12-29T16:47:16.000Z,281.84
2022-12-29T16:48:43.000Z,281.84
2022-12-29T16:50:49.000Z,281.84
2022-12-29T16:52:15.000Z,281.71
2022-12-29T16:54:22.000Z,281.71
2022-12-29T16:57:13.000Z,281.71
2022-12-29T16:58:39.000Z,281.77
2022-12-29T17:00:51.000Z,281.77
2022-12-29T17:02:18.000Z,281.77
2022-12-29T17:04:24.000Z,281.71
2022-12-29T17:05:51.000Z,281.77
2022-12-29T17:08:01.000Z,281.84
2022-12-29T17:09:28.000Z,281.84
2022-12-29T17:11:34.000Z,281.84
2022-12-29T17:13:01.000Z,281.77
2022-12-29T17:15:07.000Z,281.77
2022-12-29T17:16:34.000Z,281.84
2022-12-29T17:18:40.000Z,281.84
2022-12-29T17:20:06.000Z,281.77
2022-12-29T17:22:12.000Z,281.71
2022-12-29T17:23:39.000Z,281.84
2022-12-29T17:25:45.000Z,281.77
2022-12-29T17:27:12.000Z,281.77
2022-12-29T17:29:18.000Z,281.77
2022-12-29T17:30:44.000Z,281.71
2022-12-29T17:32:50.000Z,281.65
2022-12-29T17:35:41.000Z,281.59
2022-12-29T17:37:08.000Z,281.52
2022-12-29T17:39:14.000Z,281.46
2022-12-29T17:40:41.000Z,281.46
2022-12-29T17:42:47.000Z,281.52
2022-12-29T17:44:13.000Z,281.52
2022-12-29T17:46:19.000Z,281.4
2022-12-29T17:47:46.000Z,281.34
2022-12-29T17:49:52.000Z,281.34
2022-12-29T17:51:19.000Z,281.34
2022-12-29T17:53:25.000Z,281.27
2022-12-29T17:54:51.000Z,281.34
2022-12-29T17:56:57.000Z,281.27
2022-12-29T17:58:24.000Z,281.21
2022-12-29T18:00:30.000Z,281.21
2022-12-29T18:01:57.000Z,281.27
2022-12-29T18:04:03.000Z,281.34
2022-12-29T18:05:30.000Z,281.34
2022-12-29T18:07:36.000Z,281.21
2022-12-29T18:09:02.000Z,281.15
2022-12-29T18:11:08.000Z,281.02
2022-12-29T18:14:00.000Z,280.96
2022-12-29T18:15:26.000Z,280.9
2022-12-29T18:17:32.000Z,280.84
2022-12-29T18:18:59.000Z,280.84
2022-12-29T18:21:05.000Z,280.84
2022-12-29T18:22:32.000Z,280.77
2022-12-29T18:24:38.000Z,280.77
2022-12-29T18:26:04.000Z,280.77
2022-12-29T18:28:10.000Z,280.77
2022-12-29T18:29:37.000Z,280.77
2022-12-29T18:31:43.000Z,280.77
2022-12-29T18:33:10.000Z,280.71
2022-12-29T18:35:25.000Z,280.71
2022-12-29T18:36:51.000Z,280.71
2022-12-29T18:38:57.000Z,280.77
2022-12-29T18:40:24.000Z,280.84
2022-12-29T18:42:30.000Z,280.77
2022-12-29T18:43:57.000Z,280.77
2022-12-29T18:46:03.000Z,280.77
2022-12-29T18:47:29.000Z,280.84
2022-12-29T18:49:36.000Z,280.9
2022-12-29T18:52:27.000Z,280.84
2022-12-29T18:53:53.000Z,280.9
2022-12-29T18:55:59.000Z,280.9
2022-12-29T18:57:26.000Z,280.84
2022-12-29T18:59:32.000Z,280.84
2022-12-29T19:00:58.000Z,280.9
2022-12-29T19:03:05.000Z,280.9
2022-12-29T19:04:31.000Z,280.9
2022-12-29T19:06:37.000Z,280.9
2022-12-29T19:08:04.000Z,280.96
2022-12-29T19:10:10.000Z,280.96
2022-12-29T19:11:37.000Z,280.96
2022-12-29T19:13:43.000Z,280.9
2022-12-29T19:15:09.000Z,280.9
2022-12-29T19:17:15.000Z,280.9
2022-12-29T19:18:42.000Z,280.9
2022-12-29T19:20:55.000Z,280.9
2022-12-29T19:22:21.000Z,280.9
2022-12-29T19:24:27.000Z,280.9
2022-12-29T19:25:54.000Z,280.9
2022-12-29T19:28:00.000Z,280.84
2022-12-29T19:30:51.000Z,280.77
2022-12-29T19:32:21.000Z,280.77
2022-12-29T19:34:27.000Z,280.65
2022-12-29T19:35:54.000Z,280.71
2022-12-29T19:38:00.000Z,280.65
2022-12-29T19:39:26.000Z,280.65
2022-12-29T19:41:32.000Z,280.65
2022-12-29T19:42:59.000Z,280.65
2022-12-29T19:45:05.000Z,280.59
2022-12-29T19:46:31.000Z,280.52
2022-12-29T19:48:38.000Z,280.59
2022-12-29T19:50:04.000Z,280.65
2022-12-29T19:52:10.000Z,280.65
2022-12-29T19:53:37.000Z,280.65
2022-12-29T19:55:43.000Z,280.65
2022-12-29T19:57:09.000Z,280.71
2022-12-29T19:59:16.000Z,280.65
2022-12-29T20:00:42.000Z,280.71
2022-12-29T20:02:48.000Z,280.65
2022-12-29T20:04:15.000Z,280.65
2022-12-29T20:06:21.000Z,280.65
2022-12-29T20:09:12.000Z,280.65
2022-12-29T20:10:39.000Z,280.71
2022-12-29T20:12:45.000Z,280.65
2022-12-29T20:14:11.000Z,280.77
2022-12-29T20:16:17.000Z,280.77
2022-12-29T20:17:44.000Z,280.77
2022-12-29T20:20:17.000Z,280.71
2022-12-29T20:21:44.000Z,280.71
2022-12-29T20:23:50.000Z,280.77
2022-12-29T20:25:16.000Z,280.77
2022-12-29T20:27:49.000Z,280.71
2022-12-29T20:29:16.000Z,280.77
2022-12-29T20:31:22.000Z,280.71
2022-12-29T20:32:48.000Z,280.65
2022-12-29T20:34:54.000Z,280.65
2022-12-29T20:36:21.000Z,280.59
2022-12-29T20:38:27.000Z,280.65
2022-12-29T20:39:54.000Z,280.59
2022-12-29T20:42:00.000Z,280.59
2022-12-29T20:43:27.000Z,280.46
2022-12-29T20:45:33.000Z,280.52
2022-12-29T20:48:24.000Z,280.4
2022-12-29T20:49:50.000Z,280.34
2022-12-29T20:51:56.000Z,280.4
2022-12-29T20:53:31.000Z,280.34
2022-12-29T20:55:37.000Z,280.34
2022-12-29T20:57:05.000Z,280.27
2022-12-29T20:59:12.000Z,280.34
2022-12-29T21:00:52.000Z,280.4
2022-12-29T21:02:59.000Z,280.34
2022-12-29T21:04:26.000Z,280.34
2022-12-29T21:07:01.000Z,280.27
2022-12-29T21:08:27.000Z,280.34
2022-12-29T21:10:33.000Z,280.27
2022-12-29T21:12:00.000Z,280.27
2022-12-29T21:14:06.000Z,280.27
2022-12-29T21:15:32.000Z,280.27
2022-12-29T21:17:38.000Z,280.27
2022-12-29T21:19:05.000Z,280.27
2022-12-29T21:21:11.000Z,280.21
2022-12-29T21:22:38.000Z,280.21
2022-12-29T21:24:44.000Z,280.21
2022-12-29T21:27:35.000Z,280.15
2022-12-29T21:29:02.000Z,280.15
2022-12-29T21:31:08.000Z,280.02
2022-12-29T21:32:34.000Z,280.09
2022-12-29T21:34:40.000Z,280.15
2022-12-29T21:36:07.000Z,280.15
2022-12-29T21:38:13.000Z,280.15
2022-12-29T21:39:40.000Z,280.21
2022-12-29T21:41:46.000Z,280.21
2022-12-29T21:43:12.000Z,280.21
2022-12-29T21:45:18.000Z,280.15
2022-12-29T21:46:45.000Z,280.21
2022-12-29T21:48:51.000Z,280.34
2022-12-29T21:50:18.000Z,280.34
2022-12-29T21:52:24.000Z,280.34
2022-12-29T21:53:50.000Z,280.4
2022-12-29T21:55:56.000Z,280.4
2022-12-29T21:57:23.000Z,280.34
2022-12-29T21:59:29.000Z,280.34
2022-12-29T22:00:56.000Z,280.27
2022-12-29T22:03:02.000Z,280.34
2022-12-29T22:05:53.000Z,280.34
2022-12-29T22:07:20.000Z,280.4
2022-12-29T22:09:26.000Z,280.34
2022-12-29T22:10:53.000Z,280.27
2022-12-29T22:12:59.000Z,280.4
2022-12-29T22:14:25.000Z,280.4
2022-12-29T22:16:31.000Z,280.34
2022-12-29T22:17:58.000Z,280.4
2022-12-29T22:20:04.000Z,280.4
2022-12-29T22:21:30.000Z,280.4
2022-12-29T22:23:37.000Z,280.4
2022-12-29T22:25:03.000Z,280.46
2022-12-29T22:27:09.000Z,280.4
2022-12-29T22:28:36.000Z,280.4
2022-12-29T22:30:42.000Z,280.4
2022-12-29T22:32:08.000Z,280.34
2022-12-29T22:34:15.000Z,280.4
2022-12-29T22:35:41.000Z,280.4
2022-12-29T22:37:47.000Z,280.34
2022-12-29T22:39:14.000Z,280.34
2022-12-29T22:41:20.000Z,280.4
2022-12-29T22:44:11.000Z,280.27
2022-12-29T22:45:38.000Z,280.34
2022-12-29T22:47:44.000Z,280.34
2022-12-29T22:49:10.000Z,280.27
2022-12-29T22:51:17.000Z,280.21
2022-12-29T22:52:43.000Z,280.21
2022-12-29T22:54:49.000Z,280.15
2022-12-29T22:56:16.000Z,280.21
2022-12-29T22:58:22.000Z,280.21